createdAt,value
2017-07-18T00:00:57.953Z,0
2017-07-18T00:01:57.933Z,0
2017-07-18T00:02:57.910Z,0
2017-07-18T00:03:57.648Z,0
2017-07-18T00:04:57.935Z,0
2017-07-18T00:05:57.852Z,0
2017-07-18T00:06:57.834Z,0
2017-07-18T00:07:57.818Z,0
2017-07-18T00:08:57.807Z,0
2017-07-18T00:09:57.773Z,0
2017-07-18T00:10:57.763Z,0
2017-07-18T00:11:57.742Z,0
2017-07-18T00:12:57.416Z,0
2017-07-18T00:13:57.376Z,0
2017-07-18T00:14:57.924Z,0
2017-07-18T00:15:57.339Z,0
2017-07-18T00:16:57.632Z,0
2017-07-18T00:17:57.615Z,0
2017-07-18T00:18:57.281Z,0
2017-07-18T00:19:57.564Z,0
2017-07-18T00:20:57.536Z,0
2017-07-18T00:21:57.534Z,0
2017-07-18T00:22:57.206Z,0
2017-07-18T00:23:57.488Z,0
2017-07-18T00:24:57.455Z,0
2017-07-18T00:25:57.435Z,0
2017-07-18T00:26:57.414Z,0
2017-07-18T00:27:57.382Z,0
2017-07-18T00:28:57.373Z,0
2017-07-18T00:29:57.396Z,0
2017-07-18T00:30:57.329Z,0
2017-07-18T00:31:57.312Z,0
2017-07-18T00:32:57.285Z,0
2017-07-18T00:33:57.276Z,0
2017-07-18T00:34:57.253Z,0
2017-07-18T00:35:57.234Z,0
2017-07-18T00:36:57.304Z,0
2017-07-18T00:37:57.184Z,0
2017-07-18T00:38:57.165Z,0
2017-07-18T00:39:56.900Z,0
2017-07-18T00:40:56.827Z,0
2017-07-18T00:41:57.108Z,0
2017-07-18T00:42:58.040Z,0
2017-07-18T00:43:57.074Z,0
2017-07-18T00:44:57.088Z,0
2017-07-18T00:45:57.019Z,0
2017-07-18T00:46:57.038Z,0
2017-07-18T00:47:56.968Z,0
2017-07-18T00:48:56.952Z,0
2017-07-18T00:49:56.955Z,0
2017-07-18T00:50:56.907Z,0
2017-07-18T00:51:56.898Z,0
2017-07-18T00:52:56.872Z,0
2017-07-18T00:53:56.548Z,0
2017-07-18T00:54:56.851Z,0
2017-07-18T00:55:56.805Z,0
2017-07-18T00:56:56.798Z,0
2017-07-18T00:57:56.764Z,0
2017-07-18T00:58:56.740Z,0
2017-07-18T00:59:56.712Z,0
2017-07-18T01:00:56.722Z,0
2017-07-18T01:01:56.387Z,0
2017-07-18T01:02:56.732Z,0
2017-07-18T01:03:56.639Z,0
2017-07-18T01:04:56.622Z,0
2017-07-18T01:05:56.623Z,0
2017-07-18T01:06:56.280Z,0
2017-07-18T01:07:56.586Z,0
2017-07-18T01:08:56.579Z,0
2017-07-18T01:09:56.509Z,0
2017-07-18T01:10:56.506Z,0
2017-07-18T01:11:56.169Z,0
2017-07-18T01:12:56.462Z,0
2017-07-18T01:13:56.128Z,0
2017-07-18T01:14:56.423Z,0
2017-07-18T01:15:56.395Z,0
2017-07-18T01:16:56.372Z,0
2017-07-18T01:17:56.358Z,0
2017-07-18T01:18:56.377Z,0
2017-07-18T01:19:56.313Z,0
2017-07-18T01:20:56.346Z,0
2017-07-18T01:21:55.972Z,0
2017-07-18T01:22:55.963Z,0
2017-07-18T01:23:56.223Z,0
2017-07-18T01:24:56.204Z,0
2017-07-18T01:25:56.177Z,0
2017-07-18T01:26:56.161Z,0
2017-07-18T01:27:56.158Z,0
2017-07-18T01:28:56.114Z,0
2017-07-18T01:29:56.088Z,0
2017-07-18T01:30:56.388Z,0
2017-07-18T01:31:56.057Z,0
2017-07-18T01:32:56.054Z,0
2017-07-18T01:33:56.010Z,0
2017-07-18T01:34:56.001Z,0
2017-07-18T01:35:56.021Z,0
2017-07-18T01:36:55.951Z,0
2017-07-18T01:37:55.957Z,0
2017-07-18T01:38:55.921Z,0
2017-07-18T01:39:55.880Z,0
2017-07-18T01:40:55.866Z,0
2017-07-18T01:41:55.844Z,0
2017-07-18T01:42:55.829Z,0
2017-07-18T01:43:55.804Z,0
2017-07-18T01:44:55.793Z,0
2017-07-18T01:45:55.766Z,0
2017-07-18T01:46:55.751Z,0
2017-07-18T01:47:55.726Z,0
2017-07-18T01:48:55.708Z,0
2017-07-18T01:49:55.683Z,0
2017-07-18T01:50:55.656Z,0
2017-07-18T01:51:55.331Z,0
2017-07-18T01:52:55.630Z,0
2017-07-18T01:53:55.592Z,0
2017-07-18T01:54:55.274Z,0
2017-07-18T01:55:55.848Z,0
2017-07-18T01:56:55.541Z,0
2017-07-18T01:57:55.501Z,0
2017-07-18T01:58:55.487Z,0
2017-07-18T01:59:55.467Z,0
2017-07-18T02:00:55.167Z,0
2017-07-18T02:01:55.452Z,0
2017-07-18T02:02:55.409Z,0
2017-07-18T02:03:55.394Z,0
2017-07-18T02:04:55.373Z,0
2017-07-18T02:05:55.334Z,0
2017-07-18T02:06:55.041Z,0
2017-07-18T02:07:55.345Z,0
2017-07-18T02:08:55.299Z,0
2017-07-18T02:09:55.246Z,0
2017-07-18T02:10:55.257Z,0
2017-07-18T02:11:55.243Z,0
2017-07-18T02:12:54.953Z,0
2017-07-18T02:13:55.166Z,0
2017-07-18T02:14:55.217Z,0
2017-07-18T02:15:55.122Z,0
2017-07-18T02:16:55.136Z,0
2017-07-18T02:17:55.125Z,0
2017-07-18T02:18:55.079Z,0
2017-07-18T02:19:55.035Z,0
2017-07-18T02:20:55.025Z,0
2017-07-18T02:21:54.693Z,0
2017-07-18T02:22:54.982Z,0
2017-07-18T02:23:54.960Z,0
2017-07-18T02:24:54.935Z,0
2017-07-18T02:25:54.962Z,0
2017-07-18T02:26:54.904Z,0
2017-07-18T02:27:54.871Z,0
2017-07-18T02:28:54.922Z,0
2017-07-18T02:29:54.525Z,0
2017-07-18T02:30:54.816Z,0
2017-07-18T02:31:54.778Z,0
2017-07-18T02:32:54.779Z,0
2017-07-18T02:33:54.740Z,0
2017-07-18T02:34:54.733Z,0
2017-07-18T02:35:54.702Z,0
2017-07-18T02:36:54.742Z,0
2017-07-18T02:37:54.365Z,0
2017-07-18T02:38:54.645Z,0
2017-07-18T02:39:54.622Z,0
2017-07-18T02:40:54.625Z,0
2017-07-18T02:41:54.280Z,0
2017-07-18T02:42:54.601Z,0
2017-07-18T02:43:54.528Z,0
2017-07-18T02:44:54.520Z,0
2017-07-18T02:45:54.491Z,0
2017-07-18T02:46:54.477Z,0
2017-07-18T02:47:54.501Z,0
2017-07-18T02:48:54.502Z,0
2017-07-18T02:49:54.400Z,0
2017-07-18T02:50:54.382Z,0
2017-07-18T02:51:54.359Z,0
2017-07-18T02:52:54.350Z,0
2017-07-18T02:53:54.317Z,0
2017-07-18T02:54:54.321Z,0
2017-07-18T02:55:54.279Z,0
2017-07-18T02:56:53.958Z,0
2017-07-18T02:57:54.280Z,0
2017-07-18T02:58:54.220Z,0
2017-07-18T02:59:54.412Z,0
2017-07-18T03:00:54.183Z,0
2017-07-18T03:01:54.158Z,0
2017-07-18T03:02:54.148Z,0
2017-07-18T03:03:54.127Z,0
2017-07-18T03:04:54.083Z,0
2017-07-18T03:05:54.067Z,0
2017-07-18T03:06:54.065Z,0
2017-07-18T03:07:54.017Z,0
2017-07-18T03:08:54.013Z,0
2017-07-18T03:09:53.978Z,0
2017-07-18T03:10:53.658Z,0
2017-07-18T03:11:53.941Z,0
2017-07-18T03:12:53.922Z,0
2017-07-18T03:13:53.896Z,0
2017-07-18T03:14:53.903Z,0
2017-07-18T03:15:53.562Z,0
2017-07-18T03:16:53.856Z,0
2017-07-18T03:17:53.806Z,0
2017-07-18T03:18:53.792Z,0
2017-07-18T03:19:53.470Z,0
2017-07-18T03:20:53.465Z,0
2017-07-18T03:21:53.727Z,0
2017-07-18T03:22:53.761Z,5
2017-07-18T03:23:53.675Z,5
2017-07-18T03:24:53.666Z,5
2017-07-18T03:25:53.655Z,5
2017-07-18T03:26:53.373Z,5
2017-07-18T03:27:53.649Z,5
2017-07-18T03:28:53.581Z,5
2017-07-18T03:29:53.543Z,5
2017-07-18T03:30:53.545Z,5
2017-07-18T03:31:53.257Z,5
2017-07-18T03:32:53.596Z,10
2017-07-18T03:33:53.465Z,10
2017-07-18T03:34:53.473Z,10
2017-07-18T03:35:53.425Z,10
2017-07-18T03:36:53.468Z,10
2017-07-18T03:37:53.078Z,10
2017-07-18T03:38:53.391Z,15
2017-07-18T03:39:53.338Z,15
2017-07-18T03:40:53.317Z,15
2017-07-18T03:41:53.307Z,15
2017-07-18T03:42:53.344Z,15
2017-07-18T03:43:53.251Z,15
2017-07-18T03:44:53.246Z,20
2017-07-18T03:45:53.200Z,20
2017-07-18T03:46:53.227Z,20
2017-07-18T03:47:53.166Z,20
2017-07-18T03:48:53.154Z,20
2017-07-18T03:49:53.115Z,25
2017-07-18T03:50:53.139Z,25
2017-07-18T03:51:53.087Z,25
2017-07-18T03:52:52.762Z,25
2017-07-18T03:53:53.044Z,30
2017-07-18T03:54:52.742Z,30
2017-07-18T03:55:52.992Z,30
2017-07-18T03:56:52.987Z,30
2017-07-18T03:57:52.950Z,35
2017-07-18T03:58:52.943Z,35
2017-07-18T03:59:52.922Z,35
2017-07-18T04:00:52.976Z,40
2017-07-18T04:01:52.879Z,45
2017-07-18T04:02:52.942Z,45
2017-07-18T04:03:52.822Z,45
2017-07-18T04:04:52.525Z,50
2017-07-18T04:05:52.783Z,55
2017-07-18T04:06:52.775Z,55
2017-07-18T04:07:52.740Z,60
2017-07-18T04:08:52.723Z,55
2017-07-18T04:09:52.704Z,60
2017-07-18T04:10:52.691Z,60
2017-07-18T04:11:52.653Z,65
2017-07-18T04:12:52.644Z,70
2017-07-18T04:13:52.615Z,75
2017-07-18T04:14:52.304Z,85
2017-07-18T04:15:52.576Z,115
2017-07-18T04:16:52.555Z,130
2017-07-18T04:17:52.570Z,135
2017-07-18T04:18:52.199Z,135
2017-07-18T04:19:52.503Z,145
2017-07-18T04:20:52.472Z,145
2017-07-18T04:21:52.442Z,155
2017-07-18T04:22:52.726Z,165
2017-07-18T04:23:52.396Z,170
2017-07-18T04:24:52.386Z,175
2017-07-18T04:25:52.358Z,195
2017-07-18T04:26:52.343Z,190
2017-07-18T04:27:52.368Z,195
2017-07-18T04:28:52.306Z,195
2017-07-18T04:29:52.288Z,195
2017-07-18T04:30:52.256Z,195
2017-07-18T04:31:52.230Z,150
2017-07-18T04:32:52.229Z,125
2017-07-18T04:33:52.242Z,175
2017-07-18T04:34:51.910Z,220
2017-07-18T04:35:52.149Z,240
2017-07-18T04:36:52.140Z,245
2017-07-18T04:37:52.163Z,245
2017-07-18T04:38:52.098Z,255
2017-07-18T04:39:51.772Z,260
2017-07-18T04:40:52.058Z,270
2017-07-18T04:41:51.730Z,280
2017-07-18T04:42:52.024Z,285
2017-07-18T04:43:51.990Z,290
2017-07-18T04:44:51.977Z,295
2017-07-18T04:45:51.997Z,300
2017-07-18T04:46:51.937Z,305
2017-07-18T04:47:51.922Z,315
2017-07-18T04:48:51.594Z,315
2017-07-18T04:49:51.880Z,320
2017-07-18T04:50:51.567Z,330
2017-07-18T04:51:51.836Z,340
2017-07-18T04:52:51.815Z,340
2017-07-18T04:53:51.799Z,350
2017-07-18T04:54:51.789Z,360
2017-07-18T04:55:51.761Z,360
2017-07-18T04:56:52.054Z,365
2017-07-18T04:57:51.713Z,365
2017-07-18T04:58:51.760Z,370
2017-07-18T04:59:51.682Z,335
2017-07-18T05:00:51.669Z,245
2017-07-18T05:01:51.640Z,285
2017-07-18T05:02:51.707Z,360
2017-07-18T05:03:51.599Z,390
2017-07-18T05:04:51.587Z,395
2017-07-18T05:05:51.558Z,395
2017-07-18T05:06:51.574Z,400
2017-07-18T05:07:51.572Z,400
2017-07-18T05:08:51.506Z,405
2017-07-18T05:09:51.493Z,400
2017-07-18T05:10:51.465Z,400
2017-07-18T05:11:51.464Z,400
2017-07-18T05:12:51.465Z,415
2017-07-18T05:13:51.422Z,425
2017-07-18T05:14:51.468Z,430
2017-07-18T05:15:51.083Z,435
2017-07-18T05:16:51.379Z,440
2017-07-18T05:17:51.341Z,445
2017-07-18T05:18:51.332Z,450
2017-07-18T05:19:51.316Z,460
2017-07-18T05:20:51.310Z,465
2017-07-18T05:21:51.275Z,455
2017-07-18T05:22:51.254Z,450
2017-07-18T05:23:51.294Z,450
2017-07-18T05:24:51.236Z,455
2017-07-18T05:25:51.197Z,425
2017-07-18T05:26:50.911Z,440
2017-07-18T05:27:50.868Z,455
2017-07-18T05:28:51.206Z,470
2017-07-18T05:29:51.185Z,460
2017-07-18T05:30:51.126Z,465
2017-07-18T05:31:51.092Z,485
2017-07-18T05:32:51.082Z,495
2017-07-18T05:33:51.060Z,515
2017-07-18T05:34:51.041Z,505
2017-07-18T05:35:51.055Z,515
2017-07-18T05:36:51.035Z,525
2017-07-18T05:37:50.688Z,545
2017-07-18T05:38:50.990Z,545
2017-07-18T05:39:50.959Z,555
2017-07-18T05:40:50.955Z,555
2017-07-18T05:41:50.931Z,565
2017-07-18T05:42:50.914Z,580
2017-07-18T05:43:50.899Z,590
2017-07-18T05:44:50.939Z,590
2017-07-18T05:45:50.305Z,600
2017-07-18T05:46:50.846Z,615
2017-07-18T05:47:50.884Z,630
2017-07-18T05:48:50.823Z,645
2017-07-18T05:49:50.797Z,655
2017-07-18T05:50:50.769Z,670
2017-07-18T05:51:50.762Z,645
2017-07-18T05:52:50.459Z,585
2017-07-18T05:53:50.735Z,730
2017-07-18T05:54:50.707Z,745
2017-07-18T05:55:50.718Z,780
2017-07-18T05:56:50.727Z,815
2017-07-18T05:57:50.658Z,845
2017-07-18T05:58:50.680Z,870
2017-07-18T05:59:50.629Z,890
2017-07-18T06:00:50.612Z,715
2017-07-18T06:01:50.594Z,820
2017-07-18T06:02:50.595Z,610
2017-07-18T06:03:50.564Z,665
2017-07-18T06:04:50.254Z,835
2017-07-18T06:05:50.528Z,720
2017-07-18T06:06:50.526Z,615
2017-07-18T06:07:50.203Z,625
2017-07-18T06:08:50.500Z,615
2017-07-18T06:09:50.477Z,580
2017-07-18T06:10:50.514Z,650
2017-07-18T06:11:50.452Z,575
2017-07-18T06:12:50.126Z,530
2017-07-18T06:13:50.407Z,520
2017-07-18T06:14:50.399Z,500
2017-07-18T06:15:50.107Z,485
2017-07-18T06:16:50.362Z,485
2017-07-18T06:17:50.346Z,490
2017-07-18T06:18:50.345Z,505
2017-07-18T06:19:50.326Z,465
2017-07-18T06:20:50.309Z,485
2017-07-18T06:21:50.282Z,480
2017-07-18T06:22:50.264Z,515
2017-07-18T06:23:50.296Z,505
2017-07-18T06:24:50.249Z,515
2017-07-18T06:25:50.205Z,505
2017-07-18T06:26:50.198Z,555
2017-07-18T06:27:50.195Z,530
2017-07-18T06:28:50.184Z,570
2017-07-18T06:29:50.147Z,715
2017-07-18T06:30:49.826Z,600
2017-07-18T06:31:50.159Z,585
2017-07-18T06:32:50.198Z,605
2017-07-18T06:33:49.793Z,680
2017-07-18T06:34:50.117Z,760
2017-07-18T06:35:50.042Z,635
2017-07-18T06:36:50.037Z,640
2017-07-18T06:37:49.701Z,730
2017-07-18T06:38:49.988Z,735
2017-07-18T06:39:49.968Z,750
2017-07-18T06:40:49.980Z,705
2017-07-18T06:41:50.002Z,755
2017-07-18T06:42:49.932Z,685
2017-07-18T06:43:49.904Z,665
2017-07-18T06:44:49.895Z,665
2017-07-18T06:45:50.027Z,800
2017-07-18T06:46:49.563Z,695
2017-07-18T06:47:49.841Z,785
2017-07-18T06:48:49.818Z,835
2017-07-18T06:49:49.814Z,895
2017-07-18T06:50:49.482Z,875
2017-07-18T06:51:49.471Z,1060
2017-07-18T06:52:49.793Z,970
2017-07-18T06:53:49.742Z,700
2017-07-18T06:54:49.736Z,815
2017-07-18T06:55:49.707Z,885
2017-07-18T06:56:49.390Z,1160
2017-07-18T06:57:49.673Z,755
2017-07-18T06:58:49.712Z,650
2017-07-18T06:59:49.653Z,600
2017-07-18T07:00:49.356Z,620
2017-07-18T07:01:49.616Z,655
2017-07-18T07:02:49.596Z,905
2017-07-18T07:03:49.638Z,865
2017-07-18T07:04:49.581Z,525
2017-07-18T07:05:49.570Z,565
2017-07-18T07:06:49.558Z,670
2017-07-18T07:07:49.525Z,775
2017-07-18T07:08:49.511Z,1290
2017-07-18T07:09:49.538Z,1315
2017-07-18T07:10:49.481Z,1330
2017-07-18T07:11:49.163Z,1355
2017-07-18T07:12:49.461Z,1200
2017-07-18T07:13:49.133Z,1125
2017-07-18T07:14:49.430Z,1375
2017-07-18T07:15:49.411Z,1370
2017-07-18T07:16:49.400Z,1390
2017-07-18T07:17:49.085Z,1380
2017-07-18T07:18:49.389Z,1330
2017-07-18T07:19:49.097Z,1310
2017-07-18T07:20:49.350Z,1100
2017-07-18T07:21:49.325Z,785
2017-07-18T07:22:49.320Z,740
2017-07-18T07:23:49.291Z,650
2017-07-18T07:24:49.318Z,590
2017-07-18T07:25:48.980Z,580
2017-07-18T07:26:49.003Z,780
2017-07-18T07:27:49.300Z,895
2017-07-18T07:28:49.234Z,895
2017-07-18T07:29:49.219Z,820
2017-07-18T07:30:48.910Z,805
2017-07-18T07:31:49.186Z,850
2017-07-18T07:32:48.969Z,1035
2017-07-18T07:33:48.872Z,1310
2017-07-18T07:34:49.173Z,1265
2017-07-18T07:35:49.183Z,1595
2017-07-18T07:36:49.131Z,1515
2017-07-18T07:37:49.102Z,1675
2017-07-18T07:38:48.820Z,1325
2017-07-18T07:39:48.795Z,1225
2017-07-18T07:40:49.083Z,950
2017-07-18T07:41:49.053Z,990
2017-07-18T07:42:49.105Z,870
2017-07-18T07:43:49.046Z,995
2017-07-18T07:44:49.046Z,1655
2017-07-18T07:45:49.007Z,1005
2017-07-18T07:46:48.995Z,930
2017-07-18T07:47:48.691Z,1210
2017-07-18T07:48:48.694Z,1140
2017-07-18T07:49:48.962Z,820
2017-07-18T07:50:48.712Z,1365
2017-07-18T07:51:48.949Z,1420
2017-07-18T07:52:48.660Z,1005
2017-07-18T07:53:48.905Z,1500
2017-07-18T07:54:48.895Z,1075
2017-07-18T07:55:48.907Z,1480
2017-07-18T07:56:48.877Z,1265
2017-07-18T07:57:48.898Z,1340
2017-07-18T07:58:48.573Z,1570
2017-07-18T07:59:48.847Z,1595
2017-07-18T08:00:48.838Z,1660
2017-07-18T08:01:48.844Z,1670
2017-07-18T08:02:48.508Z,1680
2017-07-18T08:03:48.495Z,1660
2017-07-18T08:04:48.792Z,1665
2017-07-18T08:05:48.803Z,1640
2017-07-18T08:06:48.475Z,1615
2017-07-18T08:07:48.514Z,1640
2017-07-18T08:08:48.461Z,1645
2017-07-18T08:09:48.480Z,1670
2017-07-18T08:10:48.723Z,1670
2017-07-18T08:11:48.742Z,1700
2017-07-18T08:12:48.712Z,1775
2017-07-18T08:13:48.718Z,1695
2017-07-18T08:14:48.113Z,1640
2017-07-18T08:15:48.402Z,1675
2017-07-18T08:16:48.737Z,1560
2017-07-18T08:17:48.408Z,1905
2017-07-18T08:18:48.673Z,1425
2017-07-18T08:19:48.667Z,1215
2017-07-18T08:20:48.667Z,1110
2017-07-18T08:21:48.657Z,1295
2017-07-18T08:22:48.656Z,1470
2017-07-18T08:23:48.424Z,1240
2017-07-18T08:24:48.626Z,1145
2017-07-18T08:25:48.306Z,1025
2017-07-18T08:26:48.606Z,945
2017-07-18T08:27:48.287Z,940
2017-07-18T08:28:48.588Z,930
2017-07-18T08:29:48.587Z,1000
2017-07-18T08:30:48.554Z,1070
2017-07-18T08:31:48.257Z,970
2017-07-18T08:32:48.533Z,975
2017-07-18T08:33:48.530Z,995
2017-07-18T08:34:48.518Z,1055
2017-07-18T08:35:48.502Z,1170
2017-07-18T08:36:48.494Z,1735
2017-07-18T08:37:47.874Z,1495
2017-07-18T08:38:48.484Z,1315
2017-07-18T08:39:48.462Z,1430
2017-07-18T08:40:48.136Z,1285
2017-07-18T08:41:48.434Z,1705
2017-07-18T08:42:48.427Z,1350
2017-07-18T08:43:48.103Z,1730
2017-07-18T08:44:48.404Z,1600
2017-07-18T08:45:47.819Z,1530
2017-07-18T08:46:48.380Z,2000
2017-07-18T08:47:48.060Z,1365
2017-07-18T08:48:48.062Z,1850
2017-07-18T08:49:48.399Z,1610
2017-07-18T08:50:48.023Z,1535
2017-07-18T08:51:48.326Z,1620
2017-07-18T08:52:48.012Z,2075
2017-07-18T08:53:47.997Z,2145
2017-07-18T08:54:48.291Z,1925
2017-07-18T08:55:47.977Z,2255
2017-07-18T08:56:47.970Z,2265
2017-07-18T08:57:48.268Z,2265
2017-07-18T08:58:48.242Z,1615
2017-07-18T08:59:48.242Z,1735
2017-07-18T09:00:48.231Z,1535
2017-07-18T09:01:47.930Z,1615
2017-07-18T09:02:47.914Z,1600
2017-07-18T09:03:47.911Z,2085
2017-07-18T09:04:47.900Z,1795
2017-07-18T09:05:48.184Z,2000
2017-07-18T09:06:48.180Z,1945
2017-07-18T09:07:48.171Z,1985
2017-07-18T09:08:48.159Z,1970
2017-07-18T09:09:48.155Z,1965
2017-07-18T09:10:48.161Z,1950
2017-07-18T09:11:48.165Z,1950
2017-07-18T09:12:47.878Z,1950
2017-07-18T09:13:48.123Z,1960
2017-07-18T09:14:48.108Z,1950
2017-07-18T09:15:47.567Z,1950
2017-07-18T09:16:48.094Z,1965
2017-07-18T09:17:48.086Z,1815
2017-07-18T09:18:48.097Z,1840
2017-07-18T09:19:48.130Z,1900
2017-07-18T09:20:47.776Z,1840
2017-07-18T09:21:48.058Z,1830
2017-07-18T09:22:48.047Z,1805
2017-07-18T09:23:48.045Z,1830
2017-07-18T09:24:47.787Z,1825
2017-07-18T09:25:48.030Z,1855
2017-07-18T09:26:48.018Z,1885
2017-07-18T09:27:48.006Z,1870
2017-07-18T09:28:48.058Z,1910
2017-07-18T09:29:48.007Z,1920
2017-07-18T09:30:48.015Z,1915
2017-07-18T09:31:47.979Z,1920
2017-07-18T09:32:47.678Z,1915
2017-07-18T09:33:48.024Z,1780
2017-07-18T09:34:47.655Z,1930
2017-07-18T09:35:47.936Z,1910
2017-07-18T09:36:47.644Z,1935
2017-07-18T09:37:47.932Z,1940
2017-07-18T09:38:47.917Z,1965
2017-07-18T09:39:47.605Z,1990
2017-07-18T09:40:47.907Z,2025
2017-07-18T09:41:47.894Z,2040
2017-07-18T09:42:47.890Z,2050
2017-07-18T09:43:47.886Z,2030
2017-07-18T09:44:47.606Z,2025
2017-07-18T09:45:47.552Z,2030
2017-07-18T09:46:47.562Z,1965
2017-07-18T09:47:47.713Z,1960
2017-07-18T09:48:47.549Z,2000
2017-07-18T09:49:47.832Z,2000
2017-07-18T09:50:47.824Z,1820
2017-07-18T09:51:47.886Z,1780
2017-07-18T09:52:47.525Z,1950
2017-07-18T09:53:47.213Z,1845
2017-07-18T09:54:47.788Z,1965
2017-07-18T09:55:47.782Z,1900
2017-07-18T09:56:47.529Z,1940
2017-07-18T09:57:47.767Z,1990
2017-07-18T09:58:47.773Z,2025
2017-07-18T09:59:47.773Z,1900
2017-07-18T10:00:47.760Z,1965
2017-07-18T10:01:47.743Z,2080
2017-07-18T10:02:47.744Z,2050
2017-07-18T10:03:47.738Z,2035
2017-07-18T10:04:47.713Z,1980
2017-07-18T10:05:47.412Z,1790
2017-07-18T10:06:47.759Z,1895
2017-07-18T10:07:47.696Z,2015
2017-07-18T10:08:47.702Z,2025
2017-07-18T10:09:47.682Z,2035
2017-07-18T10:10:47.409Z,2100
2017-07-18T10:11:47.694Z,2175
2017-07-18T10:12:47.714Z,2200
2017-07-18T10:13:47.654Z,2210
2017-07-18T10:14:47.357Z,1945
2017-07-18T10:15:47.343Z,2085
2017-07-18T10:16:47.698Z,1945
2017-07-18T10:17:47.620Z,2040
2017-07-18T10:18:47.321Z,2250
2017-07-18T10:19:47.367Z,2265
2017-07-18T10:20:47.622Z,2260
2017-07-18T10:21:47.610Z,2225
2017-07-18T10:22:47.600Z,2260
2017-07-18T10:23:47.576Z,2250
2017-07-18T10:24:47.602Z,2260
2017-07-18T10:25:47.586Z,2250
2017-07-18T10:26:47.255Z,2245
2017-07-18T10:27:47.546Z,2270
2017-07-18T10:28:47.534Z,2265
2017-07-18T10:29:47.229Z,2250
2017-07-18T10:30:47.516Z,2235
2017-07-18T10:31:47.518Z,2165
2017-07-18T10:32:47.528Z,2230
2017-07-18T10:33:47.505Z,2165
2017-07-18T10:34:47.509Z,2115
2017-07-18T10:35:47.202Z,2055
2017-07-18T10:36:47.172Z,1880
2017-07-18T10:37:47.238Z,2015
2017-07-18T10:38:47.224Z,2150
2017-07-18T10:39:47.509Z,2115
2017-07-18T10:40:47.450Z,2095
2017-07-18T10:41:47.492Z,2125
2017-07-18T10:42:47.441Z,2060
2017-07-18T10:43:47.436Z,2190
2017-07-18T10:44:47.419Z,2170
2017-07-18T10:45:47.455Z,2190
2017-07-18T10:46:47.404Z,2190
2017-07-18T10:47:47.153Z,2170
2017-07-18T10:48:47.384Z,2175
2017-07-18T10:49:47.383Z,2170
2017-07-18T10:50:47.374Z,2145
2017-07-18T10:51:47.415Z,2105
2017-07-18T10:52:47.353Z,2100
2017-07-18T10:53:47.364Z,2100
2017-07-18T10:54:47.343Z,2055
2017-07-18T10:55:47.331Z,2005
2017-07-18T10:56:47.029Z,1980
2017-07-18T10:57:47.315Z,1985
2017-07-18T10:58:47.302Z,2015
2017-07-18T10:59:47.603Z,2060
2017-07-18T11:00:47.389Z,1980
2017-07-18T11:01:47.298Z,1970
2017-07-18T11:02:47.285Z,2065
2017-07-18T11:03:47.272Z,2095
2017-07-18T11:04:47.263Z,1835
2017-07-18T11:05:47.256Z,1335
2017-07-18T11:06:47.262Z,1580
2017-07-18T11:07:47.242Z,1795
2017-07-18T11:08:47.228Z,1825
2017-07-18T11:09:47.251Z,1870
2017-07-18T11:10:47.230Z,1920
2017-07-18T11:11:47.211Z,1985
2017-07-18T11:12:47.202Z,1995
2017-07-18T11:13:47.187Z,2035
2017-07-18T11:14:47.192Z,1975
2017-07-18T11:15:47.173Z,2160
2017-07-18T11:16:46.854Z,2270
2017-07-18T11:17:47.151Z,2300
2017-07-18T11:18:46.862Z,1765
2017-07-18T11:19:47.158Z,620
2017-07-18T11:20:46.827Z,250
2017-07-18T11:21:46.822Z,250
2017-07-18T11:22:47.133Z,245
2017-07-18T11:23:46.803Z,245
2017-07-18T11:24:46.794Z,245
2017-07-18T11:25:47.083Z,245
2017-07-18T11:26:47.073Z,240
2017-07-18T11:27:47.060Z,240
2017-07-18T11:28:47.054Z,235
2017-07-18T11:29:47.058Z,235
2017-07-18T11:30:46.775Z,235
2017-07-18T11:31:47.013Z,235
2017-07-18T11:32:47.049Z,230
2017-07-18T11:33:46.984Z,225
2017-07-18T11:34:46.974Z,225
2017-07-18T11:35:46.664Z,220
2017-07-18T11:36:47.203Z,220
2017-07-18T11:37:46.981Z,220
2017-07-18T11:38:46.917Z,220
2017-07-18T11:39:46.612Z,215
2017-07-18T11:40:46.888Z,215
2017-07-18T11:41:46.935Z,215
2017-07-18T11:42:46.855Z,215
2017-07-18T11:43:46.838Z,215
2017-07-18T11:44:46.532Z,215
2017-07-18T11:45:46.813Z,210
2017-07-18T11:46:46.812Z,210
2017-07-18T11:47:46.790Z,210
2017-07-18T11:48:46.481Z,210
2017-07-18T11:49:46.768Z,210
2017-07-18T11:50:46.735Z,210
2017-07-18T11:51:46.721Z,210
2017-07-18T11:52:46.734Z,210
2017-07-18T11:53:46.709Z,210
2017-07-18T11:54:46.733Z,210
2017-07-18T11:55:46.655Z,210
2017-07-18T11:56:46.640Z,205
2017-07-18T11:57:46.624Z,205
2017-07-18T11:58:46.303Z,200
2017-07-18T11:59:46.598Z,200
2017-07-18T12:00:46.622Z,200
2017-07-18T12:01:46.566Z,200
2017-07-18T12:02:46.540Z,200
2017-07-18T12:03:46.529Z,200
2017-07-18T12:04:46.562Z,205
2017-07-18T12:05:46.483Z,205
2017-07-18T12:06:46.183Z,205
2017-07-18T12:07:46.448Z,205
2017-07-18T12:08:46.450Z,210
2017-07-18T12:09:46.120Z,215
2017-07-18T12:13:50.450Z,215
2017-07-18T12:14:50.742Z,210
2017-07-18T12:15:50.511Z,210
2017-07-18T12:16:50.690Z,205
2017-07-18T12:17:50.672Z,205
2017-07-18T12:18:50.679Z,205
2017-07-18T12:19:50.648Z,200
2017-07-18T12:23:14.516Z,195
2017-07-18T12:23:24.772Z,195
2017-07-18T12:24:24.386Z,190
2017-07-18T12:25:24.598Z,190
2017-07-18T12:26:24.586Z,190
2017-07-18T12:27:24.574Z,190
2017-07-18T12:28:24.565Z,190
2017-07-18T12:29:24.582Z,190
2017-07-18T12:30:24.566Z,190
2017-07-18T12:31:24.232Z,190
2017-07-18T12:32:24.483Z,190
2017-07-18T12:33:24.177Z,185
2017-07-18T12:34:24.449Z,190
2017-07-18T12:35:24.426Z,185
2017-07-18T12:36:24.423Z,185
2017-07-18T12:37:24.650Z,185
2017-07-18T12:38:24.437Z,185
2017-07-18T12:39:24.386Z,185
2017-07-18T12:40:24.069Z,185
2017-07-18T12:41:24.051Z,180
2017-07-18T12:42:24.003Z,180
2017-07-18T12:43:24.309Z,180
2017-07-18T12:44:23.991Z,180
2017-07-18T12:45:24.258Z,180
2017-07-18T12:46:24.247Z,180
2017-07-18T12:47:23.919Z,180
2017-07-18T12:48:24.363Z,180
2017-07-18T12:49:23.895Z,180
2017-07-18T12:50:23.878Z,180
2017-07-18T12:51:24.163Z,185
2017-07-18T12:52:24.176Z,180
2017-07-18T12:53:24.123Z,185
2017-07-18T12:54:24.110Z,190
2017-07-18T12:55:23.908Z,190
2017-07-18T12:56:24.081Z,195
2017-07-18T12:57:23.561Z,200
2017-07-18T12:58:24.295Z,200
2017-07-18T12:59:24.049Z,205
2017-07-18T13:00:23.714Z,205
2017-07-18T13:01:24.117Z,200
2017-07-18T13:02:24.032Z,200
2017-07-18T13:03:23.655Z,195
2017-07-18T13:04:23.947Z,195
2017-07-18T13:05:23.622Z,190
2017-07-18T13:06:24.033Z,185
2017-07-18T13:07:23.909Z,185
2017-07-18T13:08:23.882Z,185
2017-07-18T13:09:23.901Z,185
2017-07-18T13:10:23.541Z,180
2017-07-18T13:11:23.932Z,180
2017-07-18T13:12:23.900Z,180
2017-07-18T13:13:23.778Z,180
2017-07-18T13:14:23.625Z,175
2017-07-18T13:15:24.461Z,175
2017-07-18T13:16:23.770Z,175
2017-07-18T13:17:24.128Z,175
2017-07-18T13:18:23.807Z,175
2017-07-18T13:19:23.385Z,175
2017-07-18T13:20:23.381Z,170
2017-07-18T13:21:23.359Z,170
2017-07-18T13:22:23.711Z,170
2017-07-18T13:23:23.625Z,165
2017-07-18T13:24:23.616Z,165
2017-07-18T13:25:23.645Z,165
2017-07-18T13:26:23.585Z,165
2017-07-18T13:27:23.273Z,165
2017-07-18T13:28:23.556Z,165
2017-07-18T13:29:23.531Z,170
2017-07-18T13:30:23.197Z,170
2017-07-18T13:31:23.498Z,170
2017-07-18T13:32:23.465Z,170
2017-07-18T13:33:23.189Z,170
2017-07-18T13:34:23.137Z,170
2017-07-18T13:35:23.476Z,170
2017-07-18T13:36:23.410Z,170
2017-07-18T13:37:23.392Z,170
2017-07-18T13:38:23.365Z,170
2017-07-18T13:39:23.363Z,170
2017-07-18T13:40:23.035Z,165
2017-07-18T13:41:23.346Z,165
2017-07-18T13:42:23.296Z,165
2017-07-18T13:43:23.340Z,165
2017-07-18T13:44:23.268Z,165
2017-07-18T13:45:23.245Z,165
2017-07-18T13:46:23.282Z,165
2017-07-18T13:47:22.908Z,160
2017-07-18T13:48:22.593Z,160
2017-07-18T13:49:23.180Z,160
2017-07-18T13:50:23.160Z,160
2017-07-18T13:51:22.843Z,160
2017-07-18T13:52:22.832Z,160
2017-07-18T13:53:23.124Z,160
2017-07-18T13:54:23.103Z,160
2017-07-18T13:55:22.829Z,160
2017-07-18T13:56:23.071Z,160
2017-07-18T13:57:23.048Z,160
2017-07-18T13:58:23.049Z,160
2017-07-18T13:59:22.763Z,160